Latest Weather Observations for Mortlake

IDV60801

Issued at 6:02 pm EDT Sunday 29 March 2015 (issued every 30 minutes, with the page automatically refreshed every 10 minutes)

About weather observations | Map of weather stations | Latest weather observations for VIC | Other Formats
Station Details ID: 090176 Name: MORTLAKE RACECOURSE Lat: -38.07 Lon: 142.77 Height: 130.0 m
Data from the previous 72 hours. | See also: Recent months at Mortlake
Date/Time
EDT
Temp
°C
App
Temp
°C
Dew
Point
Rel
Hum
%
Delta-T
°C
Wind Press
QNH
hPa
Press
MSL
hPa
Rain
since 9 am
mm
Dir
 
Spd
km/h
Gust
km/h
Spd
kts
Gust
kts
29/06:00pm 18.7 15.7 11.8 64 3.8 SSW 19 24 10 13 1021.5 1021.3 0.0
29/05:30pm 20.4 17.6 11.3 56 5.0 SSW 17 20 9 11 1021.2 1021.0 0.0
29/05:00pm 20.7 18.3 9.9 50 5.8 SW 13 19 7 10 1021.0 1020.8 0.0
29/04:30pm 21.4 19.1 10.3 49 6.1 WSW 13 20 7 11 1020.9 1020.7 0.0
29/04:00pm 21.1 19.5 10.3 50 5.9 WSW 9 20 5 11 1021.0 1020.8 0.0
29/03:30pm 20.9 18.6 10.4 51 5.7 WSW 13 20 7 11 1021.2 1021.0 0.0
29/03:00pm 20.6 17.8 10.1 51 5.7 WNW 15 28 8 15 1021.4 1021.2 0.0
29/02:30pm 20.0 18.5 10.4 54 5.2 WSW 9 17 5 9 1021.7 1021.5 0.0
29/02:00pm 20.4 18.2 10.8 54 5.3 W 13 19 7 10 1022.1 1021.8 0.0
29/01:30pm 19.5 17.1 10.2 55 5.0 WNW 13 20 7 11 1022.2 1021.9 0.0
29/01:00pm 19.3 17.3 10.0 55 5.0 W 11 20 6 11 1022.3 1022.0 0.0
29/12:30pm 18.8 17.1 9.8 56 4.8 WNW 9 19 5 10 1022.6 1022.3 0.0
29/12:00pm 17.8 15.7 9.9 60 4.2 W 11 20 6 11 1022.8 1022.6 0.0
29/11:30am 18.0 15.7 10.6 62 4.0 NW 13 22 7 12 1022.9 1022.7 0.0
29/11:00am 16.9 14.6 11.6 71 2.9 NW 15 20 8 11 1023.1 1022.9 0.0
29/10:30am 15.5 13.8 11.3 76 2.3 NW 11 17 6 9 1023.1 1022.9 0.0
29/10:00am 14.1 12.4 11.1 82 1.6 NW 11 17 6 9 1023.1 1022.9 0.0
29/09:30am 12.5 11.2 11.1 91 0.7 N 9 11 5 6 1022.8 1022.6 0.0
29/09:00am 9.9 8.6 9.8 99 0.1 N 7 9 4 5 1022.6 1022.3 0.2
29/08:30am 8.4 6.3 8.3 99 0.0 N 9 11 5 6 1022.6 1022.3 0.2
29/08:00am 5.8 3.5 5.7 99 0.0 WSW 7 9 4 5 1022.5 1022.2 0.2
29/07:30am 4.6 2.2 4.5 99 0.0 WSW 6 7 3 4 1022.3 1022.0 0.2
29/07:00am 5.0 2.7 4.9 99 0.0 WSW 6 7 3 4 1022.3 1022.0 0.2
29/06:30am 7.0 5.1 6.9 99 0.0 WSW 6 9 3 5 1022.1 1021.8 0.2
29/06:00am 7.2 5.4 7.1 99 0.0 N 6 7 3 4 1021.4 1021.2 0.2
29/05:30am 6.0 3.9 5.9 99 0.0 N 6 7 3 4 1021.0 1020.8 0.2
29/05:00am 5.8 3.7 5.7 99 0.0 N 6 6 3 3 1020.6 1020.4 0.2
29/04:30am 6.8 4.7 6.7 99 0.0 N 7 7 4 4 1020.5 1020.3 0.2
29/04:00am 6.9 5.0 6.8 99 0.0 N 6 7 3 4 1020.5 1020.3 0.2
29/03:30am 7.3 5.3 7.2 99 0.0 N 7 9 4 5 1020.7 1020.5 0.2
29/03:00am 7.5 5.7 7.1 97 0.2 N 6 9 3 5 1020.8 1020.6 0.2
29/02:30am 8.4 6.2 8.0 97 0.2 N 9 13 5 7 1021.0 1020.8 0.2
29/02:00am 8.6 6.5 8.2 97 0.2 N 9 11 5 6 1021.2 1021.0 0.2
29/01:30am 8.6 6.9 8.2 97 0.2 NNW 7 9 4 5 1021.4 1021.2 0.2
29/01:00am 8.0 6.1 7.6 97 0.2 NNW 7 9 4 5 1021.5 1021.3 0.2
29/12:30am 8.7 7.1 8.1 96 0.3 NNW 6 7 3 4 1021.9 1021.6 0.2
29/12:00am 8.8 7.1 8.2 96 0.3 NNW 7 9 4 5 1022.3 1022.0 0.2
 
Date/Time
EDT
Temp
°C
App
Temp
°C
Dew
Point
Rel
Hum
%
Delta-T
°C
Wind Press
QNH
hPa
Press
MSL
hPa
Rain
since 9 am
mm
Dir
 
Spd
km/h
Gust
km/h
Spd
kts
Gust
kts
28/11:30pm 8.8 7.1 8.4 97 0.2 NNW 7 9 4 5 1022.5 1022.2 0.2
28/11:00pm 9.1 7.6 8.6 97 0.2 NNW 6 7 3 4 1022.7 1022.5 0.2
28/10:30pm 9.3 8.2 8.5 95 0.4 W 4 6 2 3 1022.7 1022.5 0.2
28/10:00pm 9.7 8.6 8.3 91 0.7 W 4 6 2 3 1022.7 1022.5 0.2
28/09:30pm 13.2 12.6 10.4 83 1.5 W 4 4 2 2 1022.6 1022.3 0.2
28/09:00pm 13.7 12.8 10.5 81 1.7 W 6 7 3 4 1022.5 1022.2 0.2
28/08:30pm 14.5 14.0 10.7 78 2.0 WNW 4 6 2 3 1022.5 1022.2 0.2
28/08:00pm 14.6 15.1 11.6 82 1.6 CALM 0 0 0 0 1022.4 1022.1 0.2
28/07:30pm 15.1 15.5 11.1 77 2.1 CALM 0 0 0 0 1022.2 1021.9 0.2
28/07:00pm 15.3 14.7 10.5 73 2.5 WNW 4 6 2 3 1022.3 1022.0 0.2
28/06:30pm 15.5 14.5 10.3 71 2.8 WNW 6 6 3 3 1022.2 1021.9 0.2
28/06:00pm 15.6 14.1 10.4 71 2.7 WNW 9 11 5 6 1022.5 1022.2 0.2
28/05:30pm 15.8 14.7 10.6 71 2.8 WNW 7 11 4 6 1022.6 1022.3 0.2
28/05:00pm 15.5 14.3 10.3 71 2.7 WNW 7 9 4 5 1022.9 1022.7 0.2
28/04:30pm 15.4 14.2 10.4 72 2.6 NW 7 9 4 5 1023.1 1022.9 0.2
28/04:00pm 15.4 14.2 10.2 71 2.7 NW 7 13 4 7 1023.3 1023.1 0.2
28/03:30pm 15.5 14.0 10.5 72 2.7 NNW 9 13 5 7 1023.4 1023.2 0.2
28/03:00pm 15.3 13.3 10.3 72 2.6 WNW 11 15 6 8 1023.8 1023.6 0.2
28/02:30pm 14.8 12.1 10.4 75 2.3 NNW 15 19 8 10 1024.2 1024.0 0.2
28/02:00pm 14.9 12.6 10.3 74 2.4 NW 13 19 7 10 1024.6 1024.4 0.2
28/01:30pm 14.7 13.1 10.1 74 2.4 NNW 9 17 5 9 1024.8 1024.6 0.2
28/01:00pm 14.4 12.9 10.4 77 2.1 WNW 9 13 5 7 1025.1 1024.9 0.2
28/12:30pm 14.8 12.9 10.6 76 2.2 NNW 11 15 6 8 1025.6 1025.4 0.2
28/12:00pm 13.9 11.9 10.1 78 2.0 NW 11 17 6 9 1025.9 1025.7 0.2
28/11:30am 13.4 11.5 10.6 83 1.5 NW 11 17 6 9 1026.0 1025.8 0.2
28/11:00am 13.4 11.8 10.2 81 1.7 NNW 9 13 5 7 1026.2 1026.0 0.2
28/10:30am 12.7 11.1 11.6 93 0.6 NW 11 13 6 7 1026.4 1026.2 0.0
28/10:00am 12.4 11.7 12.1 98 0.2 NW 7 11 4 6 1026.4 1026.2 0.0
28/09:30am 11.7 10.8 11.5 99 0.1 NW 7 9 4 5 1026.4 1026.2 0.0
28/09:00am 11.3 10.3 11.1 99 0.1 NW 7 9 4 5 1026.2 1026.0 1.0
28/08:30am 11.0 10.1 10.8 99 0.1 NW 6 7 3 4 1026.0 1025.8 1.0
28/08:00am 10.6 10.4 10.4 99 0.1 NW 2 4 1 2 1025.6 1025.4 1.0
28/07:30am 9.8 9.4 9.7 99 0.1 NW 2 4 1 2 1025.4 1025.2 1.0
28/07:00am 10.4 9.7 10.2 99 0.1 NW 4 6 2 3 1025.2 1025.0 1.0
28/06:30am 10.5 9.5 10.3 99 0.1 NW 6 6 3 3 1025.2 1025.0 1.0
28/06:00am 10.6 9.6 10.4 99 0.1 W 6 6 3 3 1025.1 1024.9 1.0
28/05:30am 10.8 10.3 10.6 99 0.1 W 4 6 2 3 1025.0 1024.8 0.8
28/05:00am 10.8 10.6 10.6 99 0.1 W 2 2 1 1 1025.1 1024.9 0.8
28/04:30am 10.8 10.3 10.6 99 0.1 W 4 4 2 2 1025.0 1024.8 0.8
28/04:00am 10.8 10.3 10.6 99 0.1 W 4 6 2 3 1025.0 1024.8 0.6
28/03:30am 10.7 10.1 10.5 99 0.1 W 4 6 2 3 1025.3 1025.1 0.6
28/03:00am 11.0 10.5 10.8 99 0.1 W 4 4 2 2 1025.5 1025.3 0.6
28/02:30am 11.1 11.4 10.9 99 0.1 CALM 0 4 0 2 1025.6 1025.4 0.6
28/02:00am 11.0 11.3 10.8 99 0.1 CALM 0 0 0 0 1025.7 1025.5 0.2
28/01:30am 11.0 11.3 10.8 99 0.1 CALM 0 0 0 0 1025.8 1025.6 0.2
28/01:00am 11.1 11.4 10.9 99 0.1 CALM 0 4 0 2 1025.9 1025.7 0.2
28/12:30am 11.1 10.6 10.9 99 0.1 W 4 6 2 3 1026.0 1025.8 0.2
28/12:00am 10.9 10.0 10.7 99 0.1 WNW 6 7 3 4 1026.1 1025.9 0.2
 
Date/Time
EDT
Temp
°C
App
Temp
°C
Dew
Point
Rel
Hum
%
Delta-T
°C
Wind Press
QNH
hPa
Press
MSL
hPa
Rain
since 9 am
mm
Dir
 
Spd
km/h
Gust
km/h
Spd
kts
Gust
kts
27/11:30pm 10.9 10.0 10.7 99 0.1 WNW 6 6 3 3 1026.3 1026.1 0.2
27/11:00pm 11.0 11.3 10.8 99 0.1 CALM 0 0 0 0 1026.3 1026.1 0.2
27/10:30pm 10.9 10.8 10.7 99 0.1 SSW 2 4 1 2 1026.4 1026.2 0.2
27/10:00pm 10.7 10.1 10.5 99 0.1 SSW 4 6 2 3 1026.3 1026.1 0.2
27/09:30pm 10.8 10.3 10.6 99 0.1 SSW 4 4 2 2 1026.2 1026.0 0.2
27/09:00pm 10.9 10.8 10.7 99 0.1 SSW 2 4 1 2 1026.1 1025.9 0.2
27/08:30pm 10.8 9.3 10.6 99 0.1 SW 9 13 5 7 1026.1 1025.9 0.2
27/08:00pm 11.0 7.0 10.4 96 0.3 SSW 22 28 12 15 1025.9 1025.7 0.2
27/07:30pm 12.8 9.6 9.8 82 1.5 SSW 17 26 9 14 1025.4 1025.2 0.2
27/07:00pm 13.0 10.0 9.4 79 1.8 SW 15 20 8 11 1025.1 1024.9 0.2
27/06:30pm 13.3 9.9 9.2 76 2.1 SW 17 24 9 13 1025.0 1024.8 0.2
27/06:00pm 13.4 10.5 10.9 85 1.3 SSW 17 24 9 13 1024.9 1024.7 0.2
27/05:30pm 13.9 10.2 10.1 78 2.0 SW 20 33 11 18 1024.8 1024.6 0.2
27/05:00pm 15.0 11.8 10.0 72 2.6 SSW 17 24 9 13 1024.6 1024.4 0.2
27/04:30pm 16.0 12.5 11.0 72 2.7 SW 20 37 11 20 1024.6 1024.4 0.2
27/04:00pm 14.4 10.9 11.0 80 1.8 SSW 20 32 11 17 1024.7 1024.5 0.2
27/03:30pm 14.3 10.7 10.7 79 1.9 SSW 20 28 11 15 1024.7 1024.5 0.2
27/03:00pm 14.5 10.4 10.1 75 2.3 SSW 22 28 12 15 1024.8 1024.6 0.2
27/02:30pm 14.6 11.3 10.8 78 2.0 SW 19 26 10 14 1025.0 1024.8 0.2
27/02:00pm 12.7 8.4 10.9 89 0.9 SW 24 32 13 17 1025.4 1025.2 0.2
27/01:30pm 13.9 9.7 9.9 77 2.1 SSW 22 28 12 15 1025.5 1025.3 0.2
27/01:00pm 13.9 8.4 9.1 73 2.4 SSW 28 37 15 20 1025.8 1025.6 0.2
27/12:30pm 13.6 9.3 9.5 76 2.1 SW 22 35 12 19 1025.9 1025.7 0.2
27/12:00pm 13.2 8.9 9.3 77 2.0 SW 22 33 12 18 1025.9 1025.7 0.2
27/11:30am 12.8 8.5 9.4 80 1.7 SW 22 37 12 20 1025.8 1025.6 0.2
27/11:00am 13.5 10.0 10.1 80 1.8 SW 19 26 10 14 1025.5 1025.3 0.2
27/10:30am 12.6 8.9 10.1 85 1.3 WSW 20 33 11 18 1025.3 1025.1 0.2
27/10:00am 12.1 8.6 10.3 89 0.9 SW 19 30 10 16 1025.2 1025.0 0.0
27/09:30am 12.9 10.8 11.1 89 1.0 WSW 13 24 7 13 1025.0 1024.8 0.0
27/09:00am 11.8 9.8 10.0 89 0.9 W 11 19 6 10 1024.7 1024.5 17.2
27/08:30am 11.0 9.3 9.8 92 0.6 WSW 9 15 5 8 1024.3 1024.1 17.2
27/08:00am 10.9 7.3 9.8 93 0.6 SW 19 24 10 13 1023.9 1023.7 17.2
27/07:30am 11.1 7.8 9.7 91 0.7 SW 17 24 9 13 1023.7 1023.5 17.2
27/07:00am 10.8 7.2 9.9 94 0.5 WSW 19 32 10 17 1023.3 1023.1 17.2
27/06:30am 10.8 6.0 10.2 96 0.3 SW 26 37 14 20 1023.2 1023.0 17.2
27/06:00am 11.2 8.1 10.4 95 0.4 WSW 17 28 9 15 1022.7 1022.5 17.0
27/05:30am 11.0 6.9 10.1 94 0.5 WSW 22 33 12 18 1022.6 1022.3 16.6
27/05:00am 11.6 8.6 10.5 93 0.6 WSW 17 24 9 13 1022.4 1022.1 16.6
27/04:30am 11.5 9.3 10.7 95 0.4 WSW 13 20 7 11 1022.1 1021.8 16.6
27/04:00am 11.2 9.4 10.9 98 0.2 W 11 17 6 9 1021.9 1021.6 16.6
27/03:30am 11.3 8.6 10.5 95 0.4 WSW 15 22 8 12 1021.7 1021.5 16.6
27/03:00am 11.3 8.7 10.8 97 0.3 WSW 15 22 8 12 1021.7 1021.5 16.6
27/02:30am 11.5 9.0 10.9 96 0.3 WSW 15 24 8 13 1021.7 1021.5 16.4
27/02:00am 11.2 8.1 10.3 94 0.5 WSW 17 24 9 13 1021.5 1021.3 16.0
27/01:30am 11.7 8.4 10.8 94 0.5 WSW 19 30 10 16 1021.4 1021.2 16.0
27/01:00am 11.5 7.6 10.7 95 0.4 SW 22 35 12 19 1021.3 1021.1 16.0
27/12:30am 11.5 8.1 10.7 95 0.4 WSW 19 28 10 15 1021.2 1021.0 14.6
27/12:00am 11.6 8.1 11.0 96 0.3 WSW 20 28 11 15 1021.3 1021.1 14.6
 
Date/Time
EDT
Temp
°C
App
Temp
°C
Dew
Point
Rel
Hum
%
Delta-T
°C
Wind Press
QNH
hPa
Press
MSL
hPa
Rain
since 9 am
mm
Dir
 
Spd
km/h
Gust
km/h
Spd
kts
Gust
kts
26/11:30pm 11.8 8.8 10.5 92 0.7 WSW 17 26 9 14 1020.9 1020.7 13.8
26/11:00pm 11.8 8.9 10.9 94 0.5 WSW 17 28 9 15 1020.9 1020.7 13.8
26/10:30pm 11.7 9.6 11.1 96 0.3 WSW 13 20 7 11 1020.7 1020.5 13.8
26/10:00pm 11.8 9.0 11.2 96 0.3 W 17 30 9 16 1020.5 1020.3 13.2
26/09:30pm 11.6 9.5 11.0 96 0.3 W 13 19 7 10 1020.3 1020.1 13.2
26/09:00pm 11.6 9.0 10.7 94 0.5 W 15 22 8 12 1019.8 1019.6 13.0
26/08:30pm 12.0 9.2 11.4 96 0.3 WSW 17 26 9 14 1019.4 1019.2 13.0
26/08:00pm 11.9 9.0 11.1 95 0.4 W 17 24 9 13 1018.9 1018.7 13.0
26/07:30pm 11.8 8.4 11.2 96 0.3 W 20 32 11 17 1018.3 1018.1 13.0
26/07:00pm 12.1 8.3 11.2 94 0.5 WSW 22 35 12 19 1017.9 1017.7 13.0
26/06:30pm 11.9 7.8 11.4 97 0.3 W 24 39 13 21 1017.5 1017.3 12.6
26/06:06pm 12.0 7.2 11.7 98 0.2 W 28 46 15 25 1017.1 1016.9 11.6

Other Formats:

Comma delimited format used in spreadsheet applications
http://www.bom.gov.au/fwo/IDV60801/IDV60801.94840.axf

JavaScript Object Notation format (JSON) in row-major order
http://www.bom.gov.au/fwo/IDV60801/IDV60801.94840.json